Weather observations for the past three days for
Newberry, Luce County Airport
Metric (Imperial)
Date Time (edt) Wind (kph) Vis. (km) Weather Sky Cond. Temperature (ºC) Relative Humidity Wind Chill (°C) Heat Index (°C) Pressure Precipitation (cm)
Air Dwpt 6 hour altimeter (cm) sea level (mb) 1 hr 3 hr 6 hr
Max. Min.
01 21:35 S 11 16.09 Fair CLR 22 21 94% 75.82 0.0
01 21:15 S 11 16.09 Fair CLR 22 21 94% 75.84 0.0
01 20:55 S 11 16.09 Fair CLR 23 21 89% 75.84 0.0
01 20:35 S 11 16.09 Fair CLR 23 21 89% 75.82 0.0
01 20:15 SW 13 16.09 Fair CLR 23 21 89% 75.87 0.0
01 19:55 S 17 16.09 Fair CLR 24 21 28.5 24.1 83% 24 75.84 0.0
01 19:35 S 15 16.09 Fair CLR 25 21 79% 26 75.84 0.0
01 19:15 S 11 16.09 Fair CLR 26 20 70% 27 75.87 0.0
01 18:55 S 15 16.09 Fair CLR 27 20 66% 29 75.87 0.0
01 18:35 S 17 16.09 Fair CLR 27 21 70% 29 75.87 0.0
01 18:15 S 15 16.09 Fair CLR 28 21 66% 30 75.87 0.0
01 17:55 S 15 16.09 Fair CLR 27 21 70% 29 75.9 0.0
01 17:35 S 13 16.09 Fair CLR 28 21 66% 30 75.87 0.0
01 17:15 SW 20 16.09 Fair CLR 28 20 62% 30 75.9 0.0
01 16:55 S 19 16.09 Fair CLR 28 21 66% 30 75.9 0.0
01 16:35 SW 17 16.09 Fair CLR 28 21 66% 30 75.9 0.0
01 16:15 S 19 16.09 Fair CLR 28 21 66% 30 75.9 0.0
01 15:55 S 19 16.09 Fair CLR 28 21 66% 30 75.92 0.0
01 15:35 SW 20 16.09 Fair CLR 28 21 66% 30 75.92 0.0
01 15:15 SW 20 16.09 Fair CLR 28 21 66% 30 75.92 0.0
01 14:55 S 17 16.09 Fair CLR 28 19 58% 29 75.95 0.0
01 14:35 S 22 16.09 Fair CLR 28 19 58% 29 75.97 0.0
01 14:15 S 15 16.09 Fair CLR 27 19 62% 28 76 0.0
01 13:55 S 13 16.09 Fair CLR 27 19 26.7 17.8 62% 28 76 0.0
01 13:35 SW 19 16.09 Fair CLR 26 19 65% 27 76.02 0.0
01 13:15 SW 19 16.09 Fair CLR 26 19 65% 27 76.02 0.0
01 12:55 SW 15 16.09 Fair CLR 26 20 70% 27 76.05 0.0
01 12:35 S 15 16.09 Fair CLR 25 21 79% 26 76.05 0.0
01 12:15 SW 11 16.09 Fair CLR 25 21 79% 26 76.05 0.0
01 11:55 SW 11 16.09 Fair CLR 25 22 83% 26 76.05 0.0
01 11:35 Vrbl 9 16.09 A Few Clouds FEW007 24 21 83% 24 76.05 0.0
01 11:15 Vrbl 6 16.09 Mostly Cloudy BKN005 23 21 89% 76.05 0.0
01 10:55 S 6 16.09 Overcast OVC001 21 21 100% 76.02 0.0
01 10:35 SE 4 2.82 Fog/Mist OVC001 20 20 100% 76.02 0.0
01 10:15 S 6 0.24 Fog VV000 19 19 100% 76.02 0.0
01 09:55 SE 6 0.24 Fog VV000 19 19 100% 76.02 0.0
01 09:35 S 7 0.24 Fog VV000 19 19 100% 76.02 0.0
01 09:15 Calm 0.24 Fog VV000 19 19 100% 76.05 0.0
01 08:55 NE 7 0.24 Fog VV000 18 18 100% 76.05 0.0
01 08:35 N 6 0.24 Fog VV000 18 18 100% 76.05 0.0
01 08:15 W 2 0.24 Fog VV000 18 18 100% 76.02 0.0
01 07:55 S 4 0.24 Fog VV000 18 18 19.4 17.6 100% 76.02 0.0
01 07:35 S 4 0.24 Fog VV000 18 18 100% 76 0.0
01 07:15 SE 4 0.24 Fog VV000 18 18 100% 76 0.0
01 06:35 Calm 0.24 Fog VV000 18 18 100% 75.97 0.0
01 06:15 Vrbl 2 0.24 Fog VV000 18 18 100% 76 0.0
01 05:55 NW 2 0.24 Fog VV000 18 18 100% 76 0.0
01 05:35 SW 4 0.24 Fog VV000 18 18 100% 76 0.0
01 05:15 S 4 0.24 Fog VV000 18 18 100% 75.97 0.0
01 04:55 Calm 0.40 Fog VV002 18 18 100% 75.97 0.0
01 04:35 W 6 0.40 Fog VV002 18 18 100% 75.97 0.0
01 04:15 SW 6 0.24 Fog VV000 19 19 100% 75.95 0.0
01 03:55 SW 6 0.24 Fog VV000 19 19 100% 75.95 0.0
01 03:35 SW 6 0.24 Fog VV000 19 19 100% 75.95 0.0
01 03:15 Vrbl 4 0.40 Fog VV002 19 19 100% 75.95 0.0
01 02:55 SW 6 0.40 Fog VV002 19 19 100% 75.95 0.0
01 02:35 SW 7 0.80 Fog VV005 19 19 100% 75.92 0.0
01 02:15 W 7 0.80 Fog BKN002 19 19 100% 75.95 0.0
01 01:55 SW 7 0.80 Fog BKN002 19 19 23.2 19.4 100% 75.92 0.0
01 01:35 S 9 2.01 Fog/Mist OVC002 20 19 94% 75.92 0.0
01 01:15 S 13 6.44 Fog/Mist OVC002 20 20 100% 75.92 0.0
01 00:55 S 11 11.27 Fog/Mist OVC004 20 20 100% 75.92 0.0
01 00:35 S 15 14.48 Overcast OVC004 21 20 94% 75.92 0.0
01 00:15 S 6 14.48 Overcast OVC004 21 20 94% 75.95 0.0
31 23:55 S 6 14.48 Overcast OVC004 21 20 94% 75.92 0.0
31 23:35 SE 6 14.48 Overcast OVC004 21 20 94% 75.92 0.0
31 23:15 SE 7 14.48 Overcast OVC006 21 20 94% 75.92 0.0
31 22:55 SE 6 16.09 Overcast OVC006 21 20 94% 75.92 0.0
31 22:35 E 11 16.09 Overcast OVC008 21 20 94% 75.92 0.0
31 22:15 E 7 16.09 Overcast OVC008 21 20 94% 75.95 0.0
31 21:55 E 7 16.09 Overcast OVC008 22 20 88% 75.95 0.0
31 21:35 E 11 16.09 Overcast BKN008 BKN014 OVC023 22 20 88% 75.92 0.0
31 21:15 SE 6 16.09 Overcast SCT012 OVC022 22 20 88% 75.92 0.0
31 20:55 SE 11 16.09 Overcast OVC012 22 21 94% 75.92 0.0
31 20:35 E 9 16.09 Overcast SCT012 OVC025 23 21 89% 75.9 0.0
31 20:15 SE 7 16.09 Overcast OVC027 23 21 89% 75.9 0.0
31 19:55 SE 15 16.09 Overcast SCT023 OVC029 23 21 27 23.2 89% 75.87 0.0
31 19:35 SE 11 16.09 Overcast OVC021 23 21 89% 75.87 0.0
31 19:15 SE 17 16.09 Overcast OVC021 24 21 83% 24 75.84 0.0
31 18:35 SE 9 16.09 Mostly Cloudy FEW020 BKN055 BKN070 25 21 79% 26 75.84 0.0
31 18:15 SE 9 16.09 Overcast FEW020 BKN055 OVC070 25 21 79% 26 75.87 0.0
31 17:55 S 9 16.09 Overcast SCT029 OVC065 25 20 74% 26 75.87 0.0
31 17:35 S 11 16.09 Overcast OVC029 25 20 74% 26 75.87 0.0
31 17:15 SE 13 16.09 Overcast FEW020 OVC029 25 20 74% 26 75.84 0.0
31 16:55 S 13 16.09 Overcast OVC029 25 20 74% 26 75.84 0.0
31 16:35 S 13 16.09 Overcast OVC027 25 20 74% 26 75.84 0.0
31 16:15 S 17 16.09 Overcast OVC025 26 20 70% 27 75.84 0.0
31 15:55 S 11 16.09 Overcast OVC025 26 20 70% 27 75.87 0.0
31 15:35 S 19 16.09 Overcast BKN023 BKN035 OVC070 26 20 70% 27 75.9 0.0
31 15:15 S 13 16.09 Overcast BKN023 BKN027 OVC070 27 21 70% 29 75.92 0.0
31 14:55 S 15 16.09 Overcast BKN019 OVC028 26 21 74% 27 75.92 0.0
31 14:35 SE 15 14.48 Overcast BKN017 OVC075 26 21 74% 27 75.9 0.0
31 14:15 SE 11 16.09 Overcast BKN015 OVC019 25 21 79% 26 75.92 0.0
31 13:55 Vrbl 11 16.09 Overcast BKN010 OVC014 24 20 24 18.7 78% 24 75.95 0.0
31 13:35 S 13 16.09 Overcast OVC006 23 21 89% 75.97 0.0
31 13:15 S 17 16.09 Overcast OVC006 23 21 89% 75.97 0.0
31 12:55 SE 15 16.09 Overcast OVC004 22 20 88% 75.97 0.0
31 12:35 SE 17 16.09 Overcast OVC004 21 20 94% 75.97 0.0
31 12:15 SE 13 12.87 Overcast OVC004 20 19 94% 76 0.0
31 11:55 E 11 16.09 Overcast OVC002 20 19 94% 76 0.0
31 11:35 E 13 11.27 Fog/Mist OVC002 19 19 100% 76 0.0
31 11:15 E 11 6.44 Fog/Mist OVC002 19 19 100% 76.02 0.0
31 10:55 E 15 4.02 Fog/Mist OVC002 19 19 100% 76 0.0
31 10:35 SE 9 2.82 Fog/Mist OVC002 19 19 100% 76.05 0.0
31 10:15 E 13 2.01 Fog/Mist OVC002 19 19 100% 76.05 0.0
31 09:55 E 11 2.82 Fog/Mist OVC002 19 19 100% 76.05 0.0
31 09:35 SE 13 4.02 Fog/Mist OVC002 19 19 100% 76.05 0.0
31 09:15 SE 15 6.44 Fog/Mist OVC002 19 18 94% 76.05 0.0
31 08:55 SE 13 6.44 Fog/Mist OVC004 19 18 94% 76.07 0.0
31 08:35 SE 11 9.66 Fog/Mist OVC004 19 18 94% 76.07 0.0
31 08:15 SE 11 9.66 Fog/Mist OVC004 19 18 94% 76.05 0.0
31 07:55 SE 15 9.66 Fog/Mist OVC004 19 18 18.7 18.2 94% 76.02 0.0
31 07:35 SE 13 11.27 Overcast OVC004 19 18 94% 76 0.0
31 07:15 SE 17 12.87 Overcast OVC004 19 18 94% 76 0.0
31 06:35 SE 24 16.09 Overcast OVC004 19 18 94% 75.97 0.0
31 06:15 SE 19 16.09 Overcast OVC004 19 18 94% 76.02 0.0
31 05:55 E 11 14.48 Overcast OVC004 19 18 94% 76.07 0.0
31 05:35 E 7 12.87 Overcast OVC004 18 18 100% 76.1 0.0
31 05:15 E 9 11.27 Overcast OVC004 18 18 100% 76.1 0.0
31 04:55 E 9 11.27 Overcast OVC004 18 18 100% 76.12 0.0
31 04:35 E 6 12.87 Overcast OVC004 18 18 100% 76.15 0.0
31 04:15 E 4 12.87 Overcast OVC004 18 18 100% 76.15 0.0
31 03:55 E 7 12.87 Overcast OVC004 18 18 100% 76.15 0.0
31 03:35 SE 7 12.87 Overcast OVC004 18 18 100% 76.17 0.0
31 03:15 E 11 14.48 Overcast OVC004 18 18 100% 76.15 0.0
31 02:55 E 7 14.48 Overcast OVC004 18 18 100% 76.15 0.0
31 02:35 E 11 16.09 Overcast OVC004 18 18 100% 76.15 0.0
31 02:15 E 11 16.09 Overcast OVC006 18 18 100% 76.17 0.0
31 01:55 E 11 16.09 Overcast OVC006 18 18 19.3 18.2 100% 76.17 0.0
31 01:35 E 11 16.09 Overcast OVC006 18 18 100% 76.17 0.0
31 01:15 E 13 16.09 Overcast OVC006 18 18 100% 76.2 0.0
31 00:55 E 15 16.09 Overcast OVC006 18 17 94% 76.2 0.0
31 00:35 E 11 16.09 Overcast OVC006 18 17 94% 76.2 0.0
31 00:15 E 13 16.09 Overcast OVC006 18 17 94% 76.2 0.0
30 23:55 E 17 16.09 Overcast OVC008 18 17 94% 76.2 0.0
30 23:35 E 15 16.09 Overcast OVC008 18 17 94% 76.2 0.0
30 23:15 E 15 16.09 Overcast OVC008 18 17 94% 76.2 0.0
30 22:55 E 13 16.09 Overcast OVC008 18 17 94% 76.2 0.0
30 22:35 E 13 16.09 Overcast OVC008 19 17 88% 76.17 0.0
30 22:15 E 15 16.09 Overcast OVC010 19 17 88% 76.17 0.0
30 21:55 E 17 16.09 Overcast OVC010 19 17 88% 76.17 0.0
30 21:35 E 15 16.09 Overcast OVC010 19 18 94% 76.17 0.0
30 21:15 E 13 16.09 Overcast OVC010 19 18 94% 76.17 0.0
30 20:55 E 11 16.09 Overcast OVC012 19 18 94% 76.17 0.0
30 20:35 E 13 16.09 Overcast OVC012 19 18 94% 76.15 0.0
30 20:15 E 15 16.09 Overcast OVC010 19 18 94% 76.15 0.0
30 19:55 E 11 16.09 Overcast OVC010 19 18 20.8 19.3 94% 76.17 0.0
30 19:35 E 11 16.09 Overcast OVC010 19 18 94% 76.17 0.0
30 19:15 E 13 16.09 Overcast OVC010 20 18 88% 76.17 0.0
30 18:55 SE 11 16.09 Overcast BKN010 OVC015 20 18 88% 76.17 0.0
30 18:35 E 17 16.09 Overcast OVC012 20 18 88% 76.17 0.0
30 18:15 E 15 16.09 Overcast OVC010 20 18 88% 76.17 0.0
30 17:55 E 13 16.09 Overcast OVC010 20 18 88% 76.15 0.0
30 17:35 E 15 16.09 Overcast OVC010 20 18 88% 76.15 0.0
30 17:15 E 15 16.09 Overcast OVC012 20 18 88% 76.15 0.0
30 16:55 E 13 16.09 Overcast OVC012 20 18 88% 76.15 0.0
30 16:35 E 15 16.09 Overcast OVC010 20 18 88% 76.15 0.0
30 16:15 E 15 16.09 Overcast OVC010 20 18 88% 76.15 0.0
30 15:55 E 13 16.09 Overcast OVC010 20 18 88% 76.15 0.0
30 15:35 E 15 16.09 Overcast OVC008 20 19 94% 76.15 0.0
30 15:15 E 15 8.05 Fog/Mist OVC010 20 18 88% 76.15 0.0
30 14:55 E 15 16.09 Overcast OVC010 20 19 94% 76.15 0.0
30 14:35 E 13 16.09 Overcast BKN011 OVC017 20 19 94% 76.15 0.0
30 14:15 E 11 16.09 Overcast BKN010 OVC016 20 19 94% 76.17 0.0
30 13:55 E 15 16.09 Overcast OVC008 21 18 20.7 17.5 83% 76.15 0.0
30 13:35 E 11 16.09 Overcast OVC008 20 18 88% 76.15 0.0
30 13:15 SE 13 16.09 Overcast OVC006 20 18 88% 76.15 0.0
30 12:55 E 13 16.09 Overcast OVC006 20 18 88% 76.12 0.0
30 12:35 E 15 16.09 Overcast OVC006 20 19 94% 76.15 0.0
30 12:15 E 11 16.09 Overcast OVC004 19 18 94% 76.17 0.0
30 11:55 E 15 16.09 Overcast OVC004 19 18 94% 76.17 0.0
30 11:35 E 15 16.09 Overcast OVC004 18 18 100% 76.17 0.0
30 11:15 E 17 16.09 Overcast OVC002 18 18 100% 76.17 0.0
30 10:55 E 15 12.87 Overcast OVC002 18 18 100% 76.17 0.0
30 10:35 E 15 9.66 Fog/Mist OVC002 18 18 100% 76.17 0.0
30 10:15 E 15 6.44 Fog/Mist OVC002 18 17 94% 76.17 0.0
30 09:55 E 11 4.02 Light Drizzle Fog/Mist OVC002 18 18 100% 76.17 0.0
30 09:35 E 15 6.44 Fog/Mist OVC002 18 18 100% 76.15 0.0
30 09:15 E 11 11.27 Overcast OVC002 18 18 100% 76.15 0.0
30 08:55 E 11 14.48 Overcast BKN002 OVC016 18 18 100% 76.15 0.0
30 08:35 E 11 16.09 Overcast SCT002 OVC016 18 17 94% 76.15 0.0
30 08:15 E 9 12.87 Overcast BKN002 OVC016 18 17 94% 76.12 0.0
30 07:55 SE 11 11.27 Overcast OVC002 18 17 18.1 17.4 94% 76.12 0.0
30 07:35 E 11 8.05 Fog/Mist OVC002 18 17 94% 76.12 0.0
30 07:15 E 9 8.05 Fog/Mist OVC002 18 17 94% 76.12 0.0
30 06:55 E 11 6.44 Light Drizzle Fog/Mist OVC002 17 17 100% 76.1 0.0 0.05
30 06:35 E 9 3.22 Light Drizzle Fog/Mist OVC004 17 17 100% 76.12 0.0
30 06:15 E 7 2.82 Light Rain Fog/Mist OVC004 17 17 100% 76.12 0.0
30 05:55 E 6 4.83 Light Drizzle Fog/Mist BKN007 BKN019 OVC024 18 17 94% 76.15 0.0 0.03
30 05:35 SE 6 4.83 Fog/Mist SCT007 BKN023 OVC029 18 17 94% 76.15 0.0
30 05:15 E 6 16.09 Overcast BKN007 OVC033 18 17 94% 76.15 0.0
30 04:55 E 6 16.09 Overcast FEW007 OVC035 18 17 94% 76.15 0.0
30 04:35 SE 6 16.09 Overcast FEW005 SCT035 OVC048 18 17 94% 76.15 0.0
30 04:15 S 13 16.09 Overcast BKN005 OVC048 18 17 94% 76.17 0.0
30 03:55 Vrbl 9 16.09 Overcast BKN048 OVC055 18 17 94% 76.17 0.0
30 03:35 S 11 16.09 Overcast FEW005 BKN046 OVC055 18 17 94% 76.17 0.0
30 03:15 S 13 16.09 Overcast OVC005 18 17 94% 76.17 0.0
30 02:55 S 11 16.09 Overcast OVC005 18 17 94% 76.2 0.0
30 02:35 S 11 16.09 Overcast OVC005 18 17 94% 76.23 0.0
30 02:15 S 9 16.09 Overcast BKN005 OVC055 18 17 94% 76.23 0.0
30 01:55 S 7 16.09 Overcast FEW046 OVC070 18 17 19.1 17.7 94% 76.25 0.0
30 01:35 S 7 16.09 Overcast SCT044 OVC060 18 17 94% 76.25 0.0
30 01:15 S 11 16.09 Overcast OVC060 18 17 94% 76.25 0.0
30 00:55 SW 17 16.09 Overcast SCT011 SCT035 OVC060 18 17 94% 76.28 0.0
30 00:35 SW 17 16.09 Overcast OVC011 18 17 94% 76.28 0.0
30 00:15 SW 17 16.09 Overcast OVC011 18 17 94% 76.28 0.0
29 23:55 SW 17 16.09 Overcast BKN008 BKN016 OVC027 18 18 100% 76.28 0.0
29 23:35 SW 11 16.09 Overcast OVC008 18 18 100% 76.28 0.0
29 23:15 SW 17 16.09 Overcast BKN010 OVC055 18 18 100% 76.25 0.0
29 22:55 SW 17 16.09 Light Drizzle OVC010 18 18 100% 76.25 0.0
29 22:35 SW 17 16.09 Light Drizzle SCT010 OVC050 18 17 94% 76.25 0.0
29 22:15 S 19 16.09 Overcast BKN050 BKN070 OVC095 18 17 94% 76.25 0.0
Date Time (edt) Wind (kph) Vis. (km) Weather Sky Cond. Air Dwpt Max. Min. Relative Humidity Wind Chill (°C) Heat Index (°C) altimeter (cm) sea level (mb) 1 hr 3 hr 6 hr
6 hour
Temperature (ºC) Pressure Precipitation (cm)